메인 페이지
METAR-TAF:

METAR-TAF

공항 :

말레 국제공항

말레, 몰디브

위도: 04-12N, 경도: 073-32E, 고도: 2m

현재 날씨관측

예보는 1 시간 7분 전, 04:00시(UTC)에 발표되었습니다.
북서6kt
온도 29°C
습도 70%
기압 1011 hPa
시정: 8000m
고도 1800ft 상공 구름 조금

METAR: VRMM 150400Z 31006KT 8000 FEW018 29/23 Q1011 NOSIG

시각: 10:07 (05:07 UTC)

예보

예보는 6 시간 7분 전, 23:00시(UTC)에 발표되었습니다.
예보 대상 시간: 15일 00시부터 16일 06시까지 (UTC)
서북서6kt
시정 10km 이상
고도 1800ft 상공 구름 조금
일시적
15일 03시부터 15일 09시까지 (UTC)
고도 1900ft 상공 구름 조금, 적란운.

TAF: VRMM 142300Z 1500/1606 30006KT 9999 FEW018 TEMPO 1503/1509 FEW019CB

4,000개 이상의 공항 관측 자료 및 예보 (METAR 및 TAF 보고).

지도상에서 검색 가능한 기상관측소가 노란 점과 빨간 점으로 표시되어 있습니다.

기상관측소 명을 보려면 표시 위로 마우스를 이동하세요.

날씨 관측과 예보를 보려면 클릭하세요.

지도 변경 : 확대하려면 엑스 표시가 있는 녹색 버튼, 축소하려면 빼기 표시가 있는 녹색 버튼, 다음 페이지의 지도를 보려면 녹색 화살표를 클릭하세요.


METAR-TAF: